createdAt,value
2018-10-21T00:00:33.275Z,14.93
2018-10-21T00:03:03.346Z,15.40
2018-10-21T00:05:33.618Z,16.17
2018-10-21T00:08:04.242Z,15.30
2018-10-21T00:10:34.332Z,16.93
2018-10-21T00:13:04.803Z,17.10
2018-10-21T00:15:35.024Z,17.03
2018-10-21T00:18:05.613Z,17.07
2018-10-21T00:20:35.728Z,16.17
2018-10-21T00:23:06.161Z,16.53
2018-10-21T00:25:36.285Z,15.77
2018-10-21T00:28:07.193Z,15.07
2018-10-21T00:30:43.873Z,15.77
2018-10-21T00:33:13.986Z,15.13
2018-10-21T00:35:44.207Z,16.00
2018-10-21T00:38:14.286Z,15.93
2018-10-21T00:40:50.847Z,15.90
2018-10-21T00:43:20.923Z,15.30
2018-10-21T00:45:50.975Z,16.33
2018-10-21T00:48:21.382Z,14.30
2018-10-21T00:50:51.413Z,15.73
2018-10-21T00:53:21.490Z,16.27
2018-10-21T00:55:51.533Z,14.60
2018-10-21T00:58:21.593Z,15.20
2018-10-21T01:00:51.700Z,13.90
2018-10-21T01:03:21.786Z,14.30
2018-10-21T01:05:51.826Z,14.73
2018-10-21T01:08:22.271Z,16.23
2018-10-21T01:10:52.330Z,15.80
2018-10-21T01:13:22.390Z,14.87
2018-10-21T01:15:52.458Z,14.80
2018-10-21T01:18:22.539Z,16.30
2018-10-21T01:20:52.812Z,15.67
2018-10-21T01:23:23.174Z,14.73
2018-10-21T01:25:53.251Z,16.13
2018-10-21T01:28:23.298Z,16.80
2018-10-21T01:30:53.383Z,15.07
2018-10-21T01:33:23.437Z,15.10
2018-10-21T01:35:53.534Z,14.63
2018-10-21T01:38:23.716Z,14.63
2018-10-21T01:40:58.104Z,15.83
2018-10-21T01:43:30.685Z,16.63
2018-10-21T01:46:01.720Z,16.33
2018-10-21T01:48:32.717Z,16.27
2018-10-21T01:51:02.898Z,17.50
2018-10-21T01:53:33.078Z,18.10
2018-10-21T01:56:03.558Z,17.70
2018-10-21T01:58:33.648Z,17.27
2018-10-21T02:01:04.038Z,17.47
2018-10-21T02:03:34.453Z,16.90
2018-10-21T02:06:04.574Z,17.07
2018-10-21T02:08:34.653Z,17.20
2018-10-21T02:11:04.877Z,17.03
2018-10-21T02:13:34.963Z,16.57
2018-10-21T02:16:05.104Z,17.10
2018-10-21T02:18:35.175Z,17.77
2018-10-21T02:21:05.499Z,17.93
2018-10-21T02:23:35.745Z,17.60
2018-10-21T02:26:05.815Z,18.20
2018-10-21T02:28:35.886Z,18.30
2018-10-21T02:31:06.258Z,17.87
2018-10-21T02:33:36.510Z,17.23
2018-10-21T02:36:06.606Z,16.43
2018-10-21T02:38:36.704Z,16.17
2018-10-21T02:41:44.378Z,16.83
2018-10-21T02:44:15.776Z,15.57
2018-10-21T02:46:46.902Z,16.50
2018-10-21T02:49:17.463Z,17.53
2018-10-21T02:51:53.153Z,16.83
2018-10-21T02:54:24.417Z,16.30
2018-10-21T02:56:54.758Z,19.20
2018-10-21T02:59:25.612Z,19.03
2018-10-21T03:01:56.042Z,16.50
2018-10-21T03:04:26.123Z,17.47
2018-10-21T03:06:56.525Z,15.17
2018-10-21T03:09:27.135Z,16.37
2018-10-21T03:11:57.437Z,16.77
2018-10-21T03:14:27.988Z,16.37
2018-10-21T03:16:58.085Z,16.87
2018-10-21T03:19:28.182Z,15.43
2018-10-21T03:21:58.472Z,15.90
2018-10-21T03:24:28.757Z,16.23
2018-10-21T03:26:58.865Z,16.27
2018-10-21T03:29:29.109Z,15.50
2018-10-21T03:31:59.216Z,16.60
2018-10-21T03:34:29.267Z,15.33
2018-10-21T03:36:59.374Z,17.03
2018-10-21T03:39:29.435Z,15.93
2018-10-21T03:41:59.519Z,15.93
2018-10-21T03:44:29.607Z,16.30
2018-10-21T03:46:59.714Z,17.83
2018-10-21T03:49:29.761Z,15.30
2018-10-21T03:51:59.863Z,16.53
2018-10-21T03:54:30.106Z,16.47
2018-10-21T03:57:00.214Z,16.23
2018-10-21T03:59:30.310Z,16.93
2018-10-21T04:02:00.383Z,16.90
2018-10-21T04:04:30.425Z,15.13
2018-10-21T04:07:00.518Z,16.90
2018-10-21T04:09:30.585Z,16.93
2018-10-21T04:12:00.652Z,17.47
2018-10-21T04:14:30.755Z,16.20
2018-10-21T04:17:00.830Z,16.80
2018-10-21T04:19:30.910Z,15.33
2018-10-21T04:22:01.030Z,16.83
2018-10-21T04:24:31.269Z,16.30
2018-10-21T04:27:01.309Z,15.97
2018-10-21T04:29:31.411Z,17.13
2018-10-21T04:32:01.461Z,16.00
2018-10-21T04:34:31.551Z,15.80
2018-10-21T04:37:12.985Z,15.97
2018-10-21T04:40:46.309Z,16.17
2018-10-21T04:43:16.385Z,15.20
2018-10-21T04:45:46.474Z,16.33
2018-10-21T04:48:16.595Z,16.23
2018-10-21T04:50:47.169Z,17.30
2018-10-21T04:53:17.249Z,17.17
2018-10-21T04:55:47.347Z,16.20
2018-10-21T04:58:18.001Z,15.77
2018-10-21T05:00:48.306Z,16.37
2018-10-21T05:03:18.522Z,15.83
2018-10-21T05:05:48.573Z,15.83
2018-10-21T05:08:18.693Z,16.67
2018-10-21T05:10:48.745Z,17.13
2018-10-21T05:13:18.840Z,17.17
2018-10-21T05:15:48.922Z,16.43
2018-10-21T05:18:19.002Z,17.53
2018-10-21T05:20:49.090Z,17.73
2018-10-21T05:23:19.155Z,19.43
2018-10-21T05:25:49.237Z,17.10
2018-10-21T05:28:19.284Z,17.60
2018-10-21T05:30:49.565Z,16.90
2018-10-21T05:33:19.641Z,16.23
2018-10-21T05:35:49.718Z,16.80
2018-10-21T05:38:19.774Z,16.23
2018-10-21T05:40:49.864Z,17.13
2018-10-21T05:43:19.958Z,16.03
2018-10-21T05:45:50.225Z,16.90
2018-10-21T05:48:20.325Z,16.83
2018-10-21T05:50:50.383Z,16.80
2018-10-21T05:53:20.477Z,17.67
2018-10-21T05:55:50.553Z,17.83
2018-10-21T05:58:20.700Z,17.37
2018-10-21T06:00:50.891Z,17.47
2018-10-21T06:03:21.022Z,17.30
2018-10-21T06:05:51.098Z,17.07
2018-10-21T06:08:21.172Z,17.13
2018-10-21T06:10:51.233Z,17.57
2018-10-21T06:13:21.366Z,16.43
2018-10-21T06:15:51.482Z,17.73
2018-10-21T06:18:24.754Z,17.63
2018-10-21T06:20:57.609Z,18.63
2018-10-21T06:23:27.699Z,17.30
2018-10-21T06:25:57.967Z,17.60
2018-10-21T06:28:28.002Z,16.53
2018-10-21T06:30:58.078Z,17.67
2018-10-21T06:33:28.208Z,17.43
2018-10-21T06:35:58.671Z,18.10
2018-10-21T06:38:28.762Z,16.90
2018-10-21T06:40:58.874Z,17.33
2018-10-21T06:43:30.510Z,17.97
2018-10-21T06:46:00.604Z,17.93
2018-10-21T06:48:30.999Z,18.03
2018-10-21T06:51:01.237Z,19.03
2018-10-21T06:53:31.490Z,17.03
2018-10-21T06:56:01.646Z,19.40
2018-10-21T06:58:31.733Z,19.47
2018-10-21T07:01:01.920Z,18.97
2018-10-21T07:03:32.161Z,18.97
2018-10-21T07:06:08.834Z,20.43
2018-10-21T07:08:38.889Z,20.27
2018-10-21T07:11:08.994Z,22.30
2018-10-21T07:13:39.123Z,20.77
2018-10-21T07:16:10.052Z,22.50
2018-10-21T07:18:40.981Z,21.93
2018-10-21T07:21:11.100Z,22.87
2018-10-21T07:23:41.160Z,21.17
2018-10-21T07:26:11.240Z,22.03
2018-10-21T07:28:41.332Z,23.27
2018-10-21T07:31:11.589Z,22.47
2018-10-21T07:33:41.699Z,23.97
2018-10-21T07:36:12.125Z,21.47
2018-10-21T07:38:42.213Z,22.37
2018-10-21T07:41:12.318Z,21.47
2018-10-21T07:43:42.561Z,20.97
2018-10-21T07:46:12.691Z,20.70
2018-10-21T07:48:42.922Z,20.93
2018-10-21T07:51:12.981Z,21.47
2018-10-21T07:53:43.070Z,20.77
2018-10-21T07:56:13.150Z,21.23
2018-10-21T07:58:43.219Z,20.83
2018-10-21T08:01:13.923Z,22.33
2018-10-21T08:03:44.182Z,20.17
2018-10-21T08:06:26.917Z,20.03
2018-10-21T08:08:57.463Z,20.07
2018-10-21T08:11:27.513Z,23.03
2018-10-21T08:13:57.622Z,22.70
2018-10-21T08:16:27.700Z,22.30
2018-10-21T08:18:57.746Z,22.77
2018-10-21T08:21:27.846Z,22.77
2018-10-21T08:23:57.897Z,21.50
2018-10-21T08:26:27.973Z,22.83
2018-10-21T08:28:58.019Z,23.27
2018-10-21T08:31:28.121Z,23.70
2018-10-21T08:33:58.523Z,22.37
2018-10-21T08:36:28.786Z,22.03
2018-10-21T08:38:58.830Z,19.80
2018-10-21T08:41:28.893Z,22.90
2018-10-21T08:43:58.938Z,21.10
2018-10-21T08:46:29.088Z,23.73
2018-10-21T08:48:59.350Z,22.47
2018-10-21T08:51:29.594Z,22.00
2018-10-21T08:53:59.637Z,21.37
2018-10-21T08:56:29.729Z,21.57
2018-10-21T08:58:59.910Z,22.00
2018-10-21T09:01:29.955Z,22.27
2018-10-21T09:04:00.627Z,22.07
2018-10-21T09:06:31.442Z,21.07
2018-10-21T09:09:02.074Z,20.85
2018-10-21T09:11:32.709Z,21.93
2018-10-21T09:14:02.801Z,21.97
2018-10-21T09:16:32.947Z,21.37
2018-10-21T09:19:03.486Z,20.77
2018-10-21T09:21:34.318Z,20.35
2018-10-21T09:24:05.154Z,21.23
2018-10-21T09:26:36.366Z,19.70
2018-10-21T09:29:07.234Z,19.80
2018-10-21T09:31:37.852Z,21.00
2018-10-21T09:34:08.474Z,19.30
2018-10-21T09:36:39.285Z,18.50
2018-10-21T09:39:12.946Z,19.02
2018-10-21T09:41:44.267Z,19.27
2018-10-21T09:44:14.913Z,17.92
2018-10-21T09:46:45.876Z,18.02
2018-10-21T09:49:16.588Z,16.87
2018-10-21T09:51:47.337Z,18.77
2018-10-21T09:54:17.961Z,18.37
2018-10-21T09:56:48.565Z,17.82
2018-10-21T09:59:19.199Z,17.35
2018-10-21T10:01:55.546Z,17.10
2018-10-21T10:04:26.247Z,15.95
2018-10-21T10:06:57.041Z,15.90
2018-10-21T10:09:27.843Z,15.13
2018-10-21T10:11:58.493Z,16.50
2018-10-21T10:14:29.130Z,15.08
2018-10-21T10:16:59.792Z,13.50
2018-10-21T10:19:30.410Z,12.70
2018-10-21T10:22:01.066Z,12.28
2018-10-21T10:24:31.886Z,12.07
2018-10-21T10:27:02.539Z,12.82
2018-10-21T10:29:33.174Z,12.53
2018-10-21T10:32:04.162Z,12.15
2018-10-21T10:34:34.771Z,12.40
2018-10-21T10:37:05.695Z,11.65
2018-10-21T10:42:13.680Z,10.23
2018-10-21T10:44:44.434Z,11.30
2018-10-21T10:47:15.097Z,10.48
2018-10-21T10:49:45.721Z,9.88
2018-10-21T10:52:16.455Z,10.28
2018-10-21T10:54:47.300Z,9.48
2018-10-21T10:57:17.866Z,9.68
2018-10-21T10:59:48.606Z,9.38
2018-10-21T11:02:19.545Z,9.15
2018-10-21T11:04:50.174Z,9.38
2018-10-21T11:07:20.900Z,9.05
2018-10-21T11:09:51.538Z,8.35
2018-10-21T11:12:22.318Z,7.65
2018-10-21T11:14:52.999Z,7.95
2018-10-21T11:17:23.663Z,7.78
2018-10-21T11:19:54.338Z,7.83
2018-10-21T11:22:25.153Z,6.90
2018-10-21T11:24:55.833Z,6.70
2018-10-21T11:27:26.678Z,7.30
2018-10-21T11:29:57.286Z,5.55
2018-10-21T11:32:28.074Z,5.47
2018-10-21T11:34:58.661Z,4.83
2018-10-21T11:37:29.747Z,4.55
2018-10-21T11:40:00.907Z,4.58
2018-10-21T11:42:31.677Z,4.30
2018-10-21T11:45:02.609Z,4.22
2018-10-21T11:47:33.591Z,4.47
2018-10-21T11:50:04.802Z,3.90
2018-10-21T11:52:36.083Z,3.67
2018-10-21T11:55:07.830Z,3.60
2018-10-21T11:57:38.757Z,3.87
2018-10-21T12:00:10.310Z,3.08
2018-10-21T12:02:40.953Z,3.00
2018-10-21T12:05:11.599Z,3.35
2018-10-21T12:07:42.564Z,3.50
2018-10-21T12:10:13.308Z,3.02
2018-10-21T12:12:44.104Z,3.20
2018-10-21T12:15:14.725Z,2.83
2018-10-21T12:17:45.373Z,2.87
2018-10-21T12:20:16.050Z,2.98
2018-10-21T12:22:47.323Z,3.00
2018-10-21T12:25:18.271Z,3.55
2018-10-21T12:27:49.003Z,2.62
2018-10-21T12:30:19.623Z,3.00
2018-10-21T12:32:50.287Z,2.85
2018-10-21T12:35:20.905Z,2.90
2018-10-21T12:37:58.126Z,3.33
2018-10-21T12:40:28.745Z,2.55
2018-10-21T12:42:59.469Z,2.50
2018-10-21T12:45:30.353Z,2.05
2018-10-21T12:48:01.062Z,2.20
2018-10-21T12:50:31.733Z,2.42
2018-10-21T12:53:02.377Z,2.60
2018-10-21T12:55:33.177Z,1.80
2018-10-21T12:58:03.857Z,1.87
2018-10-21T13:00:34.765Z,1.82
2018-10-21T13:03:05.411Z,1.92
2018-10-21T13:05:36.014Z,1.70
2018-10-21T13:08:06.943Z,1.90
2018-10-21T13:10:37.538Z,1.80
2018-10-21T13:13:08.418Z,1.60
2018-10-21T13:15:39.075Z,1.47
2018-10-21T13:18:09.707Z,1.47
2018-10-21T13:20:40.663Z,1.00
2018-10-21T13:23:11.286Z,1.30
2018-10-21T13:25:41.965Z,1.42
2018-10-21T13:28:12.982Z,1.75
2018-10-21T13:30:43.963Z,1.30
2018-10-21T13:33:14.603Z,1.40
2018-10-21T13:35:45.185Z,1.10
2018-10-21T13:38:15.798Z,1.15
2018-10-21T13:40:46.822Z,1.52
2018-10-21T13:43:17.723Z,1.37
2018-10-21T13:45:48.509Z,1.65
2018-10-21T13:48:19.693Z,1.52
2018-10-21T13:50:50.317Z,1.92
2018-10-21T13:53:20.958Z,1.25
2018-10-21T13:55:51.784Z,1.47
2018-10-21T13:58:22.398Z,1.57
2018-10-21T14:00:53.073Z,1.30
2018-10-21T14:03:23.889Z,1.40
2018-10-21T14:05:54.490Z,1.62
2018-10-21T14:08:25.495Z,1.70
2018-10-21T14:10:56.156Z,1.40
2018-10-21T14:13:26.775Z,1.70
2018-10-21T14:15:57.442Z,1.42
2018-10-21T14:18:28.247Z,1.60
2018-10-21T14:20:58.825Z,1.40
2018-10-21T14:23:29.725Z,1.57
2018-10-21T14:26:00.387Z,1.72
2018-10-21T14:28:31.088Z,1.75
2018-10-21T14:33:38.702Z,1.40
2018-10-21T14:36:09.360Z,1.67
2018-10-21T14:38:40.223Z,1.98
2018-10-21T14:41:10.878Z,1.70
2018-10-21T14:43:41.555Z,1.60
2018-10-21T14:46:12.304Z,1.80
2018-10-21T14:48:43.091Z,2.00
2018-10-21T14:51:13.842Z,1.75
2018-10-21T14:53:44.569Z,2.08
2018-10-21T14:56:15.232Z,1.60
2018-10-21T14:58:46.074Z,1.85
2018-10-21T15:01:16.694Z,1.80
2018-10-21T15:03:47.364Z,2.00
2018-10-21T15:06:18.076Z,1.92
2018-10-21T15:08:48.873Z,1.70
2018-10-21T15:11:19.539Z,1.80
2018-10-21T15:13:50.199Z,2.10
2018-10-21T15:16:21.021Z,2.05
2018-10-21T15:18:52.003Z,1.85
2018-10-21T15:21:22.840Z,2.00
2018-10-21T15:23:53.483Z,1.87
2018-10-21T15:26:24.334Z,1.98
2018-10-21T15:28:54.967Z,2.00
2018-10-21T15:31:25.809Z,2.65
2018-10-21T15:33:56.709Z,2.50
2018-10-21T15:36:27.513Z,1.87
2018-10-21T15:38:59.317Z,2.22
2018-10-21T15:41:29.957Z,2.05
2018-10-21T15:44:00.637Z,2.15
2018-10-21T15:46:31.416Z,2.30
2018-10-21T15:49:02.149Z,1.80
2018-10-21T15:51:32.915Z,2.33
2018-10-21T15:54:03.655Z,2.10
2018-10-21T15:56:34.291Z,2.20
2018-10-21T15:59:05.306Z,2.00
2018-10-21T16:01:36.442Z,2.55
2018-10-21T16:04:07.228Z,2.50
2018-10-21T16:06:38.015Z,2.37
2018-10-21T16:09:11.013Z,2.25
2018-10-21T16:11:41.815Z,1.70
2018-10-21T16:14:12.612Z,2.10
2018-10-21T16:16:43.314Z,2.25
2018-10-21T16:19:13.950Z,1.72
2018-10-21T16:21:44.532Z,2.00
2018-10-21T16:24:15.166Z,2.37
2018-10-21T16:26:45.770Z,2.00
2018-10-21T16:29:16.385Z,2.00
2018-10-21T16:31:47.059Z,2.15
2018-10-21T16:34:17.875Z,2.40
2018-10-21T16:36:48.597Z,2.62
2018-10-21T16:39:19.265Z,2.08
2018-10-21T16:41:49.993Z,1.80
2018-10-21T16:44:20.614Z,2.27
2018-10-21T16:46:51.274Z,2.10
2018-10-21T16:49:21.861Z,2.17
2018-10-21T16:51:52.486Z,2.45
2018-10-21T16:54:23.220Z,2.60
2018-10-21T16:56:53.937Z,2.83
2018-10-21T16:59:24.866Z,2.58
2018-10-21T17:01:55.575Z,2.70
2018-10-21T17:04:26.182Z,2.95
2018-10-21T17:06:57.149Z,2.75
2018-10-21T17:09:28.065Z,2.60
2018-10-21T17:11:58.765Z,2.27
2018-10-21T17:14:29.389Z,2.92
2018-10-21T17:17:00.002Z,3.22
2018-10-21T17:19:30.607Z,2.77
2018-10-21T17:22:01.268Z,3.15
2018-10-21T17:24:32.046Z,3.30
2018-10-21T17:27:03.022Z,3.15
2018-10-21T17:29:33.606Z,3.60
2018-10-21T17:32:04.273Z,4.10
2018-10-21T17:34:34.863Z,5.37
2018-10-21T17:37:05.915Z,4.92
2018-10-21T17:39:36.677Z,4.72
2018-10-21T17:42:07.301Z,4.50
2018-10-21T17:44:37.925Z,5.17
2018-10-21T17:47:08.534Z,4.62
2018-10-21T17:49:39.139Z,4.15
2018-10-21T17:52:09.877Z,3.62
2018-10-21T17:54:40.621Z,4.60
2018-10-21T17:57:11.418Z,4.55
2018-10-21T17:59:42.012Z,4.55
2018-10-21T18:02:13.286Z,4.15
2018-10-21T18:04:43.908Z,4.45
2018-10-21T18:07:14.568Z,4.37
2018-10-21T18:09:45.314Z,4.42
2018-10-21T18:12:15.914Z,4.80
2018-10-21T18:14:47.030Z,4.67
2018-10-21T18:17:17.629Z,5.12
2018-10-21T18:19:48.277Z,4.80
2018-10-21T18:22:19.208Z,5.47
2018-10-21T18:24:50.031Z,4.37
2018-10-21T18:27:21.497Z,4.03
2018-10-21T18:29:52.116Z,4.50
2018-10-21T18:32:22.723Z,4.17
2018-10-21T18:34:53.608Z,4.30
2018-10-21T18:37:24.198Z,4.12
2018-10-21T18:39:54.821Z,4.78
2018-10-21T18:42:25.619Z,4.10
2018-10-21T18:44:56.218Z,4.47
2018-10-21T18:47:26.830Z,4.47
2018-10-21T18:49:57.409Z,4.40
2018-10-21T18:52:28.033Z,4.62
2018-10-21T18:54:58.730Z,4.47
2018-10-21T18:57:29.478Z,5.12
2018-10-21T19:00:00.090Z,4.33
2018-10-21T19:02:30.919Z,4.22
2018-10-21T19:05:01.516Z,4.30
2018-10-21T19:07:32.664Z,5.10
2018-10-21T19:10:03.673Z,4.87
2018-10-21T19:12:34.437Z,4.97
2018-10-21T19:15:05.327Z,4.70
2018-10-21T19:17:36.137Z,4.72
2018-10-21T19:20:09.326Z,5.00
2018-10-21T19:22:40.102Z,5.70
2018-10-21T19:25:12.073Z,5.12
2018-10-21T19:27:43.498Z,5.28
2018-10-21T19:30:14.629Z,5.15
2018-10-21T19:32:45.452Z,5.10
2018-10-21T19:35:16.621Z,4.97
2018-10-21T19:37:47.233Z,5.90
2018-10-21T19:40:17.910Z,4.87
2018-10-21T19:42:48.690Z,5.45
2018-10-21T19:45:19.305Z,5.80
2018-10-21T19:47:49.926Z,7.37
2018-10-21T19:50:20.554Z,7.70
2018-10-21T19:52:51.153Z,7.75
2018-10-21T19:55:21.798Z,6.75
2018-10-21T19:57:52.426Z,7.50
2018-10-21T20:00:23.101Z,6.47
2018-10-21T20:02:53.835Z,6.47
2018-10-21T20:05:24.470Z,5.95
2018-10-21T20:07:55.070Z,5.78
2018-10-21T20:10:26.033Z,5.58
2018-10-21T20:12:56.993Z,4.70
2018-10-21T20:15:27.842Z,5.25
2018-10-21T20:17:58.470Z,5.08
2018-10-21T20:20:29.106Z,5.65
2018-10-21T20:22:59.711Z,5.72
2018-10-21T20:25:30.333Z,4.53
2018-10-21T20:28:01.335Z,5.53
2018-10-21T20:30:32.107Z,5.83
2018-10-21T20:33:02.769Z,5.17
2018-10-21T20:35:33.524Z,5.00
2018-10-21T20:38:04.786Z,6.30
2018-10-21T20:40:37.289Z,4.80
2018-10-21T20:43:07.925Z,4.95
2018-10-21T20:45:38.904Z,4.80
2018-10-21T20:48:09.559Z,5.00
2018-10-21T20:50:40.342Z,5.05
2018-10-21T20:53:10.935Z,5.17
2018-10-21T20:55:41.592Z,5.80
2018-10-21T20:58:12.227Z,6.03
2018-10-21T21:00:43.019Z,6.10
2018-10-21T21:03:13.828Z,5.92
2018-10-21T21:05:44.425Z,5.65
2018-10-21T21:08:15.145Z,6.47
2018-10-21T21:10:45.858Z,6.35
2018-10-21T21:13:16.489Z,5.10
2018-10-21T21:15:47.089Z,4.62
2018-10-21T21:18:17.796Z,4.70
2018-10-21T21:20:48.514Z,4.35
2018-10-21T21:23:19.144Z,4.55
2018-10-21T21:25:49.774Z,4.05
2018-10-21T21:28:20.366Z,4.47
2018-10-21T21:30:51.005Z,3.55
2018-10-21T21:33:21.611Z,4.25
2018-10-21T21:35:52.230Z,4.25
2018-10-21T21:38:22.846Z,4.20
2018-10-21T21:40:53.501Z,3.87
2018-10-21T21:43:24.169Z,5.25
2018-10-21T21:45:54.777Z,4.80
2018-10-21T21:48:25.589Z,4.00
2018-10-21T21:50:56.186Z,4.20
2018-10-21T21:53:26.988Z,4.47
2018-10-21T21:55:57.602Z,4.12
2018-10-21T21:58:28.217Z,4.83
2018-10-21T22:00:58.798Z,4.60
2018-10-21T22:03:29.406Z,4.47
2018-10-21T22:06:00.101Z,3.90
2018-10-21T22:08:30.832Z,3.95
2018-10-21T22:11:01.470Z,4.30
2018-10-21T22:13:32.102Z,4.50
2018-10-21T22:16:02.809Z,3.87
2018-10-21T22:18:33.786Z,3.87
2018-10-21T22:21:04.657Z,4.25
2018-10-21T22:23:35.275Z,4.08
2018-10-21T22:26:06.129Z,4.10
2018-10-21T22:28:36.777Z,4.47
2018-10-21T22:31:07.437Z,4.28
2018-10-21T22:33:38.061Z,4.70
2018-10-21T22:36:08.709Z,4.65
2018-10-21T22:38:39.541Z,4.60
2018-10-21T22:41:10.421Z,4.55
2018-10-21T22:43:41.041Z,4.80
2018-10-21T22:46:11.740Z,5.15
2018-10-21T22:48:42.497Z,4.72
2018-10-21T22:51:13.181Z,4.60
2018-10-21T22:53:43.839Z,4.17
2018-10-21T22:56:15.006Z,4.50
2018-10-21T22:58:45.642Z,4.20
2018-10-21T23:01:16.590Z,4.53
2018-10-21T23:03:47.762Z,4.12
2018-10-21T23:06:18.799Z,4.05
2018-10-21T23:08:49.525Z,4.08
2018-10-21T23:11:20.113Z,4.12
2018-10-21T23:13:50.806Z,4.10
2018-10-21T23:16:21.398Z,3.72
2018-10-21T23:19:02.042Z,3.92
2018-10-21T23:21:32.650Z,3.70
2018-10-21T23:24:03.324Z,3.42
2018-10-21T23:26:34.062Z,3.72
2018-10-21T23:29:04.707Z,4.30
2018-10-21T23:31:35.486Z,4.25
2018-10-21T23:34:06.187Z,3.98
2018-10-21T23:36:36.929Z,4.08
2018-10-21T23:39:07.914Z,3.70
2018-10-21T23:41:38.550Z,3.17
2018-10-21T23:44:09.338Z,3.42
2018-10-21T23:46:39.950Z,3.75
2018-10-21T23:49:10.591Z,3.80
2018-10-21T23:51:41.165Z,3.87
2018-10-21T23:54:11.842Z,3.52
2018-10-21T23:56:42.930Z,3.98
2018-10-21T23:59:13.549Z,3.77
